• Join FlightAware (Why Join?)
  • Login
  • US Flag 
03:05PM EDT


 

Airport Tracker/Info


-or-


 

Live Flight TrackerFlight Track Log ✈ RPA3392 ✈ 10-May-2013 ✈ KMSP - KDCA

Flight Track Log - Related Links

Times and Time Zones

All times are in EDT time to prevent confusion due to time zone crossing. See the RPA3392 flight status page for this flight to view local times or setup timezone preferences in your user account.

Time Position Orientation Groundspeed Altitude Reporting Facility
EDT Latitude Longitude Course Direction KTS MPH feet Rate Location/Type
05:53PM 44.9167 -93.2333 130° Southeast 175 201 2,600  Level Minneapolis TRACON
05:54PM 44.9450 -93.2250 12° North 187 215 3,400 1,620 Climbing Minneapolis Center
05:55PM 44.7432 -92.7166 111° Southeast  Level Estimated
05:55PM 45.0039 -93.1797 29° Northeast 248 285 5,100  Level Minneapolis Center
05:56PM 44.6964 -92.5487 113° Southeast  Level Estimated
05:56PM 44.9850 -93.0778 105° East 289 333 8,000  Level Minneapolis Center
05:57PM 44.6494 -92.3812 90° East  Level Estimated
05:57PM 44.9367 -92.9803 125° Southeast 300 345 10,900  Level Minneapolis Center
05:58PM 44.6022 -92.2139 117° Southeast  Level Estimated
05:58PM 44.8842 -92.8711 124° Southeast 332 382 13,100  Level Minneapolis Center
05:59PM 44.5606 -92.0672 130° Southeast  Level Estimated
05:59PM 44.8244 -92.7622 128° Southeast 349 402 15,500  Level Minneapolis Center
06:00PM 44.7517 -92.6606 135° Southeast 366 421 17,500 2,280 Climbing Minneapolis Center
06:01PM 44.6619 -92.5350 135° Southeast 376 433 20,300 2,100 Climbing Minneapolis Center
06:02PM 44.5867 -92.4269 134° Southeast 384 442 21,900 1,560 Climbing Minneapolis Center
06:03PM 44.5067 -92.3147 135° Southeast 402 463 23,600 1,680 Climbing Minneapolis Center
06:04PM 44.4258 -92.1989 134° Southeast 412 474 25,400 1,440 Climbing Minneapolis Center
06:05PM 44.3428 -92.0833 135° Southeast 419 482 26,600 1,320 Climbing Minneapolis Center
06:06PM 44.2567 -91.9633 135° Southeast 432 497 28,200 1,320 Climbing Minneapolis Center
06:07PM 44.1717 -91.8450 135° Southeast 433 498 29,400 1,140 Climbing Minneapolis Center
06:08PM 44.0675 -91.6994 135° Southeast 438 504 30,600 840 Climbing Minneapolis Center
06:09PM 43.9778 -91.5808 136° Southeast 444 511 31,200 720 Climbing Minneapolis Center
06:10PM 43.8875 -91.4544 135° Southeast 451 519 32,200 960 Climbing Minneapolis Center
06:11PM 43.7981 -91.3281 134° Southeast 457 526 33,200 1,140 Climbing Minneapolis Center
06:12PM 43.7089 -91.2078 136° Southeast 455 524 34,600 840 Climbing Minneapolis Center
06:13PM 43.6208 -91.0892 136° Southeast 446 513 35,000 180 Climbing Minneapolis Center
06:14PM 43.5161 -90.9469 135° Southeast 443 510 35,000  Level Minneapolis Center
06:16PM 43.4275 -90.8269 135° Southeast 446 513 35,000  Level Minneapolis Center
06:17PM 43.3386 -90.7086 136° Southeast 447 514 35,000  Level Minneapolis Center
06:18PM 43.2500 -90.5900 136° Southeast 447 514 35,000  Level Minneapolis Center
06:18PM 43.1969 -90.5225 137° Southeast 443 510 35,000  Level Chicago Center
06:19PM 43.1114 -90.4094 136° Southeast 433 498 35,000  Level Chicago Center
06:20PM 43.0247 -90.2936 136° Southeast 435 501 35,000  Level Chicago Center
06:21PM 42.9375 -90.1792 136° Southeast 437 503 35,000  Level Chicago Center
06:22PM 42.8503 -90.0656 136° Southeast 437 503 35,000  Level Chicago Center
06:23PM 42.7444 -89.9289 136° Southeast 437 503 35,000  Level Chicago Center
06:24PM 42.6556 -89.8133 136° Southeast 436 502 35,000  Level Chicago Center
06:25PM 42.5669 -89.6992 136° Southeast 437 503 35,000  Level Chicago Center
06:26PM 42.4789 -89.5867 137° Southeast 438 504 35,000  Level Chicago Center
06:27PM 42.3914 -89.4731 136° Southeast 437 503 35,000  Level Chicago Center
06:28PM 42.2875 -89.3436 137° Southeast 437 503 35,000  Level Chicago Center
06:29PM 42.1992 -89.2314 137° Southeast 437 503 35,000  Level Chicago Center
06:30PM 42.1122 -89.1206 137° Southeast 434 499 35,000  Level Chicago Center
06:32PM 42.0225 -89.0069 137° Southeast 431 496 35,000  Level Chicago Center
06:33PM 41.9328 -88.8961 137° Southeast 437 503 35,000  Level Chicago Center
06:34PM 41.8442 -88.7853 137° Southeast 439 505 35,000  Level Chicago Center
06:35PM 41.7389 -88.6539 137° Southeast 435 501 35,000  Level Chicago Center
06:36PM 41.6511 -88.5453 137° Southeast 434 499 35,000  Level Chicago Center
06:37PM 41.5619 -88.4350 137° Southeast 439 505 35,000  Level Chicago Center
06:38PM 41.4736 -88.3272 138° Southeast 436 502 35,000  Level Chicago Center
06:39PM 41.3875 -88.2217 137° Southeast 432 497 35,000  Level Chicago Center
06:40PM 41.2836 -88.0956 138° Southeast 435 501 35,000  Level Chicago Center
06:41PM 41.1953 -87.9881 138° Southeast 439 505 35,000  Level Chicago Center
06:42PM 41.1050 -87.8786 138° Southeast 442 509 35,000  Level Chicago Center
06:43PM 40.9978 -87.7486 138° Southeast 440 506 35,000  Level Chicago Center
06:44PM 40.9081 -87.6397 137° Southeast 441 507 35,000  Level Chicago Center
06:45PM 40.8172 -87.5322 138° Southeast 438 504 35,000  Level Chicago Center
06:46PM 40.7269 -87.4250 138° Southeast 438 504 35,000  Level Chicago Center
06:47PM 40.6375 -87.3225 139° Southeast 432 497 35,000  Level Chicago Center
06:48PM 40.5497 -87.2194 138° Southeast 427 491 35,000  Level Chicago Center
06:49PM 40.4453 -87.0972 138° Southeast 422 486 35,000  Level Chicago Center
06:50PM 40.3564 -86.9911 138° Southeast 420 483 35,000  Level Chicago Center
06:51PM 40.2689 -86.8903 139° Southeast 420 483 35,000  Level Chicago Center
06:52PM 40.1806 -86.7894 139° Southeast 421 484 35,000  Level Chicago Center
06:53PM 40.0928 -86.6861 138° Southeast 424 488 35,000  Level Chicago Center
06:54PM 40.0056 -86.5864 139° Southeast 420 483 35,000  Level Chicago Center
06:55PM 39.9000 -86.4647 138° Southeast 422 486 35,000  Level Chicago Center
06:56PM 39.8139 -86.3653 138° Southeast 421 484 35,000  Level Chicago Center
06:57PM 39.7431 -86.2369 126° Southeast 433 498 35,000  Level Chicago Center
06:58PM 39.6656 -86.0978 126° Southeast 434 499 35,000  Level Chicago Center
06:59PM 39.5950 -85.9706 126° Southeast 436 502 35,000  Level Chicago Center
07:00PM 39.5253 -85.8456 126° Southeast 431 496 35,000  Level Chicago Center
07:02PM 39.4550 -85.7194 126° Southeast 434 499 35,000  Level Chicago Center
07:03PM 39.4017 -85.5772 116° Southeast 442 509 35,000  Level Chicago Center
07:04PM 39.3567 -85.3961 108° East 443 510 35,000  Level Indianapolis Center
07:05PM 39.3094 -85.2178 109° East 439 505 35,000  Level Indianapolis Center
07:06PM 39.2714 -85.0686 108° East 439 505 35,000  Level Indianapolis Center
07:07PM 39.2308 -84.9164 109° East 449 517 35,000  Level Indianapolis Center
07:08PM 39.1906 -84.7642 109° East 456 525 35,000  Level Indianapolis Center
07:09PM 39.1500 -84.6086 109° East 456 525 35,000  Level Indianapolis Center
07:10PM 39.1011 -84.4253 109° East 459 528 35,000  Level Indianapolis Center
07:11PM 39.0592 -84.2719 109° East 455 524 35,000  Level Indianapolis Center
07:12PM 39.0181 -84.1183 109° East 453 521 35,000  Level Indianapolis Center
07:13PM 38.9747 -83.9622 110° East 458 527 35,000  Level Indianapolis Center
07:14PM 38.9328 -83.8069 109° East 461 531 35,000  Level Indianapolis Center
07:15PM 38.8894 -83.6525 110° East 457 526 35,000  Level Indianapolis Center
07:16PM 38.8472 -83.4994 109° East 453 521 35,000  Level Indianapolis Center
07:17PM 38.7978 -83.3211 110° East 453 521 35,000  Level Indianapolis Center
07:18PM 38.7544 -83.1672 110° East 457 526 35,000  Level Indianapolis Center
07:19PM 38.7133 -83.0225 110° East 458 527 35,000  Level Indianapolis Center
07:20PM 38.6700 -82.8694 110° East 458 527 35,000  Level Indianapolis Center
07:21PM 38.6247 -82.7106 110° East 459 528 35,000  Level Indianapolis Center
07:22PM 38.5728 -82.5308 110° East 460 529 35,000  Level Indianapolis Center
07:23PM 38.5289 -82.3819 111° Southeast 456 525 35,000  Level Indianapolis Center
07:24PM 38.4847 -82.2289 110° East 462 532 35,000  Level Indianapolis Center
07:25PM 38.4400 -82.0769 111° Southeast 461 531 35,000  Level Indianapolis Center
07:26PM 38.3956 -81.9269 111° Southeast 457 526 35,000  Level Indianapolis Center
07:27PM 38.3558 -81.7794 109° East 447 514 35,000  Level Indianapolis Center
07:29PM 38.3439 -81.5856 94° East 465 535 35,000  Level Indianapolis Center
07:30PM 38.3378 -81.4222 93° East 466 536 35,000  Level Indianapolis Center
07:31PM 38.3328 -81.2597 92° East 464 534 35,000  Level Indianapolis Center
07:32PM 38.3264 -81.0972 93° East 464 534 35,000  Level Indianapolis Center
07:32PM 38.3233 -81.0281 93° East 443 510 35,000  Level Washington Center
07:33PM 38.3181 -80.8636 92° East 450 518 35,000  Level Washington Center
07:34PM 38.3128 -80.6992 92° East 463 533 35,000  Level Washington Center
07:35PM 38.3056 -80.5189 93° East 463 533 35,000  Level Washington Center
07:36PM 38.3208 -80.3531 83° East 463 533 35,000  Level Washington Center
07:37PM 38.3414 -80.1956 81° East 457 526 35,000  Level Washington Center
07:38PM 38.3603 -80.0297 82° East 462 532 35,000  Level Washington Center
07:39PM 38.3781 -79.8797 81° East 468 539 35,000  Level Washington Center
07:40PM 38.3967 -79.7114 82° East 468 539 35,000 -480 Level Washington Center
07:41PM 38.4147 -79.5453 82° East 474 545 34,100 -1,740 Descending Washington Center
07:42PM 38.4347 -79.3767 81° East 474 545 31,600 -2,700 Descending Washington Center
07:43PM 38.4531 -79.1894 83° East 479 551 28,700 -2,340 Descending Washington Center
07:44PM 38.4767 -79.0261 79° East 479 551 27,000 -1,200 Descending Washington Center
07:45PM 38.4975 -78.8758 80° East 473 544 26,400 -1,440 Descending Washington Center
07:46PM 38.5225 -78.7206 78° East 462 532 24,200 -2,040 Descending Washington Center
07:47PM 38.5450 -78.5700 79° East 448 516 22,300 -1,800 Descending Washington Center
07:48PM 38.5672 -78.4275 79° East 424 488 20,700 -1,860 Descending Washington Center
07:49PM 38.5914 -78.2850 78° East 414 476 18,700 -1,860 Descending Washington Center
07:50PM 38.6297 -78.1536 69° East 401 461 16,900 -1,740 Descending Washington Center
07:51PM 38.6700 -78.0247 68° East 390 449 15,300 -1,500 Descending Washington Center
07:52PM 38.7075 -77.9089 67° East 372 428 14,000 -1,320 Descending Washington Center
07:53PM 38.7492 -77.8011 64° Northeast 349 402 12,700 -1,380 Descending Washington Center
07:54PM 38.8092 -77.7150 48° Northeast 331 381 11,300 -1,560 Descending Washington Center
07:55PM 38.8756 -77.6208 48° Northeast 325 374 9,700 -1,500 Descending Washington Center
07:56PM 38.9267 -77.5422 50° Northeast 320 368 8,400 -1,320 Descending Washington Center
07:57PM 38.9667 -77.4167 68° East 281 323 7,000 -1,140 Descending Potomac TRACON
07:58PM 39.0000 -77.3500 57° Northeast 244 281 6,100 -720 Descending Potomac TRACON
07:59PM 39.0500 -77.2667 52° Northeast 225 259 5,500 -540 Descending Potomac TRACON
08:00PM 39.0667 -77.2167 67° East 212 244 5,100 -720 Descending Potomac TRACON
08:01PM 39.0333 -77.2000 159° South 156 180 4,100 -960 Descending Potomac TRACON
08:02PM 39.0000 -77.1667 142° Southeast 166 191 3,100 -960 Descending Potomac TRACON
08:03PM 38.9500 -77.1333 153° Southeast 165 190 2,200 -1,020 Descending Potomac TRACON